sensor_id;sensor_type;location;lat;lon;timestamp;P1;durP1;ratioP1;P2;durP2;ratioP2
12577;SDS011;6354;51.026;8.968;2022-08-21T00:01:52;6.55;;;5.88;;
12577;SDS011;6354;51.026;8.968;2022-08-21T00:04:21;6.32;;;5.72;;
12577;SDS011;6354;51.026;8.968;2022-08-21T00:06:56;8.80;;;5.88;;
12577;SDS011;6354;51.026;8.968;2022-08-21T00:09:25;8.45;;;6.15;;
12577;SDS011;6354;51.026;8.968;2022-08-21T00:11:53;7.47;;;6.18;;
12577;SDS011;6354;51.026;8.968;2022-08-21T00:14:21;7.30;;;6.60;;
12577;SDS011;6354;51.026;8.968;2022-08-21T00:16:49;9.98;;;6.47;;
12577;SDS011;6354;51.026;8.968;2022-08-21T00:19:20;6.70;;;6.00;;
12577;SDS011;6354;51.026;8.968;2022-08-21T00:21:51;9.65;;;6.80;;
12577;SDS011;6354;51.026;8.968;2022-08-21T00:24:21;6.90;;;6.00;;
12577;SDS011;6354;51.026;8.968;2022-08-21T00:26:49;8.90;;;5.80;;
12577;SDS011;6354;51.026;8.968;2022-08-21T00:29:18;6.75;;;5.60;;
12577;SDS011;6354;51.026;8.968;2022-08-21T00:31:46;6.57;;;5.50;;
12577;SDS011;6354;51.026;8.968;2022-08-21T00:34:14;10.93;;;6.22;;
12577;SDS011;6354;51.026;8.968;2022-08-21T00:36:43;8.57;;;6.13;;
12577;SDS011;6354;51.026;8.968;2022-08-21T00:39:10;11.05;;;5.75;;
12577;SDS011;6354;51.026;8.968;2022-08-21T00:41:40;8.00;;;6.05;;
12577;SDS011;6354;51.026;8.968;2022-08-21T00:44:10;7.38;;;5.88;;
12577;SDS011;6354;51.026;8.968;2022-08-21T00:46:40;8.00;;;5.85;;
12577;SDS011;6354;51.026;8.968;2022-08-21T00:49:09;9.55;;;6.20;;
12577;SDS011;6354;51.026;8.968;2022-08-21T00:51:39;6.95;;;5.70;;
12577;SDS011;6354;51.026;8.968;2022-08-21T00:54:11;9.88;;;5.80;;
12577;SDS011;6354;51.026;8.968;2022-08-21T00:56:46;6.28;;;5.53;;
12577;SDS011;6354;51.026;8.968;2022-08-21T00:59:27;8.65;;;5.53;;
12577;SDS011;6354;51.026;8.968;2022-08-21T01:01:57;7.90;;;5.70;;
12577;SDS011;6354;51.026;8.968;2022-08-21T01:04:25;8.27;;;5.43;;
12577;SDS011;6354;51.026;8.968;2022-08-21T01:06:53;6.97;;;5.20;;
12577;SDS011;6354;51.026;8.968;2022-08-21T01:09:22;9.13;;;5.85;;
12577;SDS011;6354;51.026;8.968;2022-08-21T01:11:51;8.60;;;6.20;;
12577;SDS011;6354;51.026;8.968;2022-08-21T01:14:19;7.45;;;5.97;;
12577;SDS011;6354;51.026;8.968;2022-08-21T01:16:49;9.57;;;6.00;;
12577;SDS011;6354;51.026;8.968;2022-08-21T01:19:19;7.35;;;5.70;;
12577;SDS011;6354;51.026;8.968;2022-08-21T01:21:50;9.75;;;5.75;;
12577;SDS011;6354;51.026;8.968;2022-08-21T01:24:20;7.32;;;5.43;;
12577;SDS011;6354;51.026;8.968;2022-08-21T01:26:48;8.32;;;5.95;;
12577;SDS011;6354;51.026;8.968;2022-08-21T01:29:21;10.35;;;5.50;;
12577;SDS011;6354;51.026;8.968;2022-08-21T01:31:56;7.28;;;6.13;;
12577;SDS011;6354;51.026;8.968;2022-08-21T01:34:25;10.25;;;6.10;;
12577;SDS011;6354;51.026;8.968;2022-08-21T01:36:54;9.98;;;6.53;;
12577;SDS011;6354;51.026;8.968;2022-08-21T01:39:22;8.55;;;6.05;;
12577;SDS011;6354;51.026;8.968;2022-08-21T01:41:50;8.60;;;6.10;;
12577;SDS011;6354;51.026;8.968;2022-08-21T01:44:20;9.15;;;6.32;;
12577;SDS011;6354;51.026;8.968;2022-08-21T01:46:48;10.80;;;6.40;;
12577;SDS011;6354;51.026;8.968;2022-08-21T01:49:17;8.02;;;6.38;;
12577;SDS011;6354;51.026;8.968;2022-08-21T01:51:45;8.38;;;6.45;;
12577;SDS011;6354;51.026;8.968;2022-08-21T01:54:14;10.00;;;6.72;;
12577;SDS011;6354;51.026;8.968;2022-08-21T01:56:43;10.20;;;5.95;;
12577;SDS011;6354;51.026;8.968;2022-08-21T01:59:13;10.13;;;6.40;;
12577;SDS011;6354;51.026;8.968;2022-08-21T02:01:42;10.88;;;6.70;;
12577;SDS011;6354;51.026;8.968;2022-08-21T02:04:10;9.95;;;6.57;;
12577;SDS011;6354;51.026;8.968;2022-08-21T02:06:38;10.30;;;6.90;;
12577;SDS011;6354;51.026;8.968;2022-08-21T02:09:07;11.90;;;6.60;;
12577;SDS011;6354;51.026;8.968;2022-08-21T02:11:38;7.22;;;6.05;;
12577;SDS011;6354;51.026;8.968;2022-08-21T02:14:06;10.88;;;7.05;;
12577;SDS011;6354;51.026;8.968;2022-08-21T02:16:35;9.40;;;6.70;;
12577;SDS011;6354;51.026;8.968;2022-08-21T02:19:03;9.15;;;6.60;;
12577;SDS011;6354;51.026;8.968;2022-08-21T02:21:33;8.67;;;6.43;;
12577;SDS011;6354;51.026;8.968;2022-08-21T02:24:01;9.20;;;6.28;;
12577;SDS011;6354;51.026;8.968;2022-08-21T02:26:30;8.15;;;6.03;;
12577;SDS011;6354;51.026;8.968;2022-08-21T02:28:59;8.73;;;6.40;;
12577;SDS011;6354;51.026;8.968;2022-08-21T02:31:27;12.60;;;7.20;;
12577;SDS011;6354;51.026;8.968;2022-08-21T02:33:56;9.25;;;6.05;;
12577;SDS011;6354;51.026;8.968;2022-08-21T02:36:24;8.75;;;6.85;;
12577;SDS011;6354;51.026;8.968;2022-08-21T02:38:54;12.13;;;7.83;;
12577;SDS011;6354;51.026;8.968;2022-08-21T02:41:22;11.27;;;6.63;;
12577;SDS011;6354;51.026;8.968;2022-08-21T02:43:51;12.68;;;7.07;;
12577;SDS011;6354;51.026;8.968;2022-08-21T02:46:20;9.50;;;7.40;;
12577;SDS011;6354;51.026;8.968;2022-08-21T02:48:48;8.53;;;7.67;;
12577;SDS011;6354;51.026;8.968;2022-08-21T02:51:17;10.00;;;7.10;;
12577;SDS011;6354;51.026;8.968;2022-08-21T02:53:48;12.18;;;7.40;;
12577;SDS011;6354;51.026;8.968;2022-08-21T02:56:18;9.77;;;7.33;;
12577;SDS011;6354;51.026;8.968;2022-08-21T02:58:47;11.37;;;8.23;;
12577;SDS011;6354;51.026;8.968;2022-08-21T03:01:17;10.20;;;8.47;;
12577;SDS011;6354;51.026;8.968;2022-08-21T03:03:47;11.13;;;9.17;;
12577;SDS011;6354;51.026;8.968;2022-08-21T03:06:17;11.27;;;9.47;;
12577;SDS011;6354;51.026;8.968;2022-08-21T03:08:48;11.53;;;9.27;;
12577;SDS011;6354;51.026;8.968;2022-08-21T03:11:17;10.53;;;8.50;;
12577;SDS011;6354;51.026;8.968;2022-08-21T03:13:45;12.77;;;9.87;;
12577;SDS011;6354;51.026;8.968;2022-08-21T03:16:13;12.52;;;8.70;;
12577;SDS011;6354;51.026;8.968;2022-08-21T03:18:41;12.83;;;9.50;;
12577;SDS011;6354;51.026;8.968;2022-08-21T03:21:10;10.77;;;8.33;;
12577;SDS011;6354;51.026;8.968;2022-08-21T03:23:39;11.37;;;10.10;;
12577;SDS011;6354;51.026;8.968;2022-08-21T03:26:09;16.08;;;10.50;;
12577;SDS011;6354;51.026;8.968;2022-08-21T03:28:38;13.07;;;11.47;;
12577;SDS011;6354;51.026;8.968;2022-08-21T03:31:06;11.43;;;10.33;;
12577;SDS011;6354;51.026;8.968;2022-08-21T03:33:35;13.07;;;10.23;;
12577;SDS011;6354;51.026;8.968;2022-08-21T03:36:04;12.93;;;9.90;;
12577;SDS011;6354;51.026;8.968;2022-08-21T03:38:35;13.07;;;9.88;;
12577;SDS011;6354;51.026;8.968;2022-08-21T03:41:05;11.37;;;8.87;;
12577;SDS011;6354;51.026;8.968;2022-08-21T03:43:33;12.90;;;9.27;;
12577;SDS011;6354;51.026;8.968;2022-08-21T03:46:03;13.30;;;10.07;;
12577;SDS011;6354;51.026;8.968;2022-08-21T03:48:33;14.90;;;10.07;;
12577;SDS011;6354;51.026;8.968;2022-08-21T03:51:03;15.00;;;10.87;;
12577;SDS011;6354;51.026;8.968;2022-08-21T03:53:32;14.50;;;10.37;;
12577;SDS011;6354;51.026;8.968;2022-08-21T03:56:02;15.67;;;12.30;;
12577;SDS011;6354;51.026;8.968;2022-08-21T03:58:31;18.13;;;11.73;;
12577;SDS011;6354;51.026;8.968;2022-08-21T04:01:00;14.50;;;11.53;;
12577;SDS011;6354;51.026;8.968;2022-08-21T04:03:28;16.03;;;11.50;;
12577;SDS011;6354;51.026;8.968;2022-08-21T04:05:56;12.57;;;9.70;;
12577;SDS011;6354;51.026;8.968;2022-08-21T04:08:24;13.67;;;9.90;;
12577;SDS011;6354;51.026;8.968;2022-08-21T04:10:54;14.47;;;10.53;;
12577;SDS011;6354;51.026;8.968;2022-08-21T04:13:24;12.40;;;10.77;;
12577;SDS011;6354;51.026;8.968;2022-08-21T04:15:54;13.90;;;11.07;;
12577;SDS011;6354;51.026;8.968;2022-08-21T04:18:24;17.23;;;12.57;;
12577;SDS011;6354;51.026;8.968;2022-08-21T04:20:52;14.77;;;11.53;;
12577;SDS011;6354;51.026;8.968;2022-08-21T04:23:23;17.33;;;12.60;;
12577;SDS011;6354;51.026;8.968;2022-08-21T04:25:52;19.73;;;13.13;;
12577;SDS011;6354;51.026;8.968;2022-08-21T04:28:23;15.90;;;12.90;;
12577;SDS011;6354;51.026;8.968;2022-08-21T04:30:55;16.57;;;13.37;;
12577;SDS011;6354;51.026;8.968;2022-08-21T04:33:24;17.27;;;13.13;;
12577;SDS011;6354;51.026;8.968;2022-08-21T04:35:52;17.40;;;14.03;;
12577;SDS011;6354;51.026;8.968;2022-08-21T04:38:20;18.63;;;12.80;;
12577;SDS011;6354;51.026;8.968;2022-08-21T04:40:49;15.23;;;13.07;;
12577;SDS011;6354;51.026;8.968;2022-08-21T04:43:20;17.33;;;13.43;;
12577;SDS011;6354;51.026;8.968;2022-08-21T04:45:50;20.77;;;14.57;;
12577;SDS011;6354;51.026;8.968;2022-08-21T04:48:20;20.77;;;13.53;;
12577;SDS011;6354;51.026;8.968;2022-08-21T04:50:52;17.50;;;14.27;;
12577;SDS011;6354;51.026;8.968;2022-08-21T04:53:24;20.50;;;12.90;;
12577;SDS011;6354;51.026;8.968;2022-08-21T04:55:58;16.93;;;13.33;;
12577;SDS011;6354;51.026;8.968;2022-08-21T04:58:35;17.03;;;12.50;;
12577;SDS011;6354;51.026;8.968;2022-08-21T05:01:06;15.17;;;12.07;;
12577;SDS011;6354;51.026;8.968;2022-08-21T05:03:37;16.05;;;12.07;;
12577;SDS011;6354;51.026;8.968;2022-08-21T05:06:08;12.38;;;10.70;;
12577;SDS011;6354;51.026;8.968;2022-08-21T05:08:39;13.70;;;10.98;;
12577;SDS011;6354;51.026;8.968;2022-08-21T05:11:09;15.07;;;10.82;;
12577;SDS011;6354;51.026;8.968;2022-08-21T05:13:39;14.55;;;10.15;;
12577;SDS011;6354;51.026;8.968;2022-08-21T05:16:08;12.32;;;9.45;;
12577;SDS011;6354;51.026;8.968;2022-08-21T05:18:36;14.70;;;10.32;;
12577;SDS011;6354;51.026;8.968;2022-08-21T05:21:04;10.88;;;9.18;;
12577;SDS011;6354;51.026;8.968;2022-08-21T05:23:32;13.73;;;9.70;;
12577;SDS011;6354;51.026;8.968;2022-08-21T05:26:00;11.07;;;9.35;;
12577;SDS011;6354;51.026;8.968;2022-08-21T05:28:31;14.32;;;9.50;;
12577;SDS011;6354;51.026;8.968;2022-08-21T05:31:01;10.13;;;9.07;;
12577;SDS011;6354;51.026;8.968;2022-08-21T05:33:29;10.45;;;8.85;;
12577;SDS011;6354;51.026;8.968;2022-08-21T05:36:01;14.82;;;9.48;;
12577;SDS011;6354;51.026;8.968;2022-08-21T05:38:29;12.68;;;9.90;;
12577;SDS011;6354;51.026;8.968;2022-08-21T05:40:57;12.60;;;9.68;;
12577;SDS011;6354;51.026;8.968;2022-08-21T05:43:25;10.07;;;8.73;;
12577;SDS011;6354;51.026;8.968;2022-08-21T05:45:53;11.32;;;9.45;;
12577;SDS011;6354;51.026;8.968;2022-08-21T05:48:23;11.35;;;9.20;;
12577;SDS011;6354;51.026;8.968;2022-08-21T05:50:53;12.77;;;9.30;;
12577;SDS011;6354;51.026;8.968;2022-08-21T05:53:21;11.15;;;8.68;;
12577;SDS011;6354;51.026;8.968;2022-08-21T05:55:51;10.75;;;9.02;;
12577;SDS011;6354;51.026;8.968;2022-08-21T05:58:20;10.68;;;8.75;;
12577;SDS011;6354;51.026;8.968;2022-08-21T06:00:49;13.18;;;8.35;;
12577;SDS011;6354;51.026;8.968;2022-08-21T06:03:22;11.77;;;8.90;;
12577;SDS011;6354;51.026;8.968;2022-08-21T06:05:53;10.93;;;9.15;;
12577;SDS011;6354;51.026;8.968;2022-08-21T06:08:22;9.82;;;8.25;;
12577;SDS011;6354;51.026;8.968;2022-08-21T06:10:52;10.30;;;8.27;;
12577;SDS011;6354;51.026;8.968;2022-08-21T06:13:22;13.38;;;9.07;;
12577;SDS011;6354;51.026;8.968;2022-08-21T06:16:00;12.00;;;8.07;;
12577;SDS011;6354;51.026;8.968;2022-08-21T06:18:30;15.50;;;8.38;;
12577;SDS011;6354;51.026;8.968;2022-08-21T06:20:59;11.82;;;7.97;;
12577;SDS011;6354;51.026;8.968;2022-08-21T06:23:27;10.35;;;8.18;;
12577;SDS011;6354;51.026;8.968;2022-08-21T06:25:58;15.85;;;8.73;;
12577;SDS011;6354;51.026;8.968;2022-08-21T06:28:27;9.73;;;7.32;;
12577;SDS011;6354;51.026;8.968;2022-08-21T06:30:55;13.50;;;8.13;;
12577;SDS011;6354;51.026;8.968;2022-08-21T06:33:23;9.90;;;7.93;;
12577;SDS011;6354;51.026;8.968;2022-08-21T06:35:59;8.90;;;8.00;;
12577;SDS011;6354;51.026;8.968;2022-08-21T06:38:27;8.93;;;7.82;;
12577;SDS011;6354;51.026;8.968;2022-08-21T06:40:56;10.45;;;7.72;;
12577;SDS011;6354;51.026;8.968;2022-08-21T06:43:25;12.55;;;8.65;;
12577;SDS011;6354;51.026;8.968;2022-08-21T06:46:05;11.07;;;7.53;;
12577;SDS011;6354;51.026;8.968;2022-08-21T06:48:33;10.35;;;7.25;;
12577;SDS011;6354;51.026;8.968;2022-08-21T06:51:03;10.20;;;7.75;;
12577;SDS011;6354;51.026;8.968;2022-08-21T06:53:32;12.38;;;8.75;;
12577;SDS011;6354;51.026;8.968;2022-08-21T06:56:00;10.07;;;8.70;;
12577;SDS011;6354;51.026;8.968;2022-08-21T06:58:28;10.80;;;8.63;;
12577;SDS011;6354;51.026;8.968;2022-08-21T07:00:57;13.75;;;8.68;;
12577;SDS011;6354;51.026;8.968;2022-08-21T07:03:27;14.23;;;8.85;;
12577;SDS011;6354;51.026;8.968;2022-08-21T07:05:56;10.75;;;9.00;;
12577;SDS011;6354;51.026;8.968;2022-08-21T07:08:27;13.68;;;8.65;;
12577;SDS011;6354;51.026;8.968;2022-08-21T07:10:56;12.02;;;8.82;;
12577;SDS011;6354;51.026;8.968;2022-08-21T07:13:26;8.88;;;7.82;;
12577;SDS011;6354;51.026;8.968;2022-08-21T07:15:55;11.93;;;8.50;;
12577;SDS011;6354;51.026;8.968;2022-08-21T07:18:29;9.60;;;8.55;;
12577;SDS011;6354;51.026;8.968;2022-08-21T07:20:57;9.23;;;7.75;;
12577;SDS011;6354;51.026;8.968;2022-08-21T07:23:27;10.02;;;8.00;;
12577;SDS011;6354;51.026;8.968;2022-08-21T07:25:59;11.63;;;8.35;;
12577;SDS011;6354;51.026;8.968;2022-08-21T07:28:28;11.00;;;8.40;;
12577;SDS011;6354;51.026;8.968;2022-08-21T07:30:57;10.45;;;7.40;;
12577;SDS011;6354;51.026;8.968;2022-08-21T07:33:27;12.65;;;7.20;;
12577;SDS011;6354;51.026;8.968;2022-08-21T07:35:57;9.07;;;6.97;;
12577;SDS011;6354;51.026;8.968;2022-08-21T07:38:27;11.23;;;6.63;;
12577;SDS011;6354;51.026;8.968;2022-08-21T07:40:56;9.35;;;6.50;;
12577;SDS011;6354;51.026;8.968;2022-08-21T07:43:27;9.85;;;6.72;;
12577;SDS011;6354;51.026;8.968;2022-08-21T07:45:55;10.13;;;6.00;;
12577;SDS011;6354;51.026;8.968;2022-08-21T07:48:25;9.10;;;5.57;;
12577;SDS011;6354;51.026;8.968;2022-08-21T07:50:53;12.00;;;6.55;;
12577;SDS011;6354;51.026;8.968;2022-08-21T07:53:21;13.05;;;6.28;;
12577;SDS011;6354;51.026;8.968;2022-08-21T07:55:51;8.27;;;5.50;;
12577;SDS011;6354;51.026;8.968;2022-08-21T07:58:19;9.82;;;5.90;;
12577;SDS011;6354;51.026;8.968;2022-08-21T08:00:47;11.43;;;5.82;;
12577;SDS011;6354;51.026;8.968;2022-08-21T08:03:16;10.50;;;6.00;;
12577;SDS011;6354;51.026;8.968;2022-08-21T08:05:54;10.95;;;5.38;;
12577;SDS011;6354;51.026;8.968;2022-08-21T08:08:23;9.20;;;5.07;;
12577;SDS011;6354;51.026;8.968;2022-08-21T08:10:53;8.85;;;4.53;;
12577;SDS011;6354;51.026;8.968;2022-08-21T08:13:25;11.40;;;5.65;;
12577;SDS011;6354;51.026;8.968;2022-08-21T08:15:53;13.75;;;6.38;;
12577;SDS011;6354;51.026;8.968;2022-08-21T08:18:22;13.75;;;7.22;;
12577;SDS011;6354;51.026;8.968;2022-08-21T08:20:50;12.15;;;7.53;;
12577;SDS011;6354;51.026;8.968;2022-08-21T08:23:18;16.63;;;7.03;;
12577;SDS011;6354;51.026;8.968;2022-08-21T08:25:46;13.10;;;6.47;;
12577;SDS011;6354;51.026;8.968;2022-08-21T08:28:16;13.43;;;7.18;;
12577;SDS011;6354;51.026;8.968;2022-08-21T08:30:44;12.02;;;7.22;;
12577;SDS011;6354;51.026;8.968;2022-08-21T08:33:13;12.60;;;6.68;;
12577;SDS011;6354;51.026;8.968;2022-08-21T08:35:42;15.20;;;6.45;;
12577;SDS011;6354;51.026;8.968;2022-08-21T08:38:14;8.88;;;5.53;;
12577;SDS011;6354;51.026;8.968;2022-08-21T08:40:47;12.88;;;6.32;;
12577;SDS011;6354;51.026;8.968;2022-08-21T08:43:22;9.70;;;5.53;;
12577;SDS011;6354;51.026;8.968;2022-08-21T08:45:50;12.48;;;6.28;;
12577;SDS011;6354;51.026;8.968;2022-08-21T08:48:30;14.85;;;5.53;;
12577;SDS011;6354;51.026;8.968;2022-08-21T08:51:07;11.18;;;5.47;;
12577;SDS011;6354;51.026;8.968;2022-08-21T08:53:45;11.68;;;5.15;;
12577;SDS011;6354;51.026;8.968;2022-08-21T08:56:18;10.35;;;5.60;;
12577;SDS011;6354;51.026;8.968;2022-08-21T08:58:51;10.32;;;5.32;;
12577;SDS011;6354;51.026;8.968;2022-08-21T09:01:21;10.95;;;5.55;;
12577;SDS011;6354;51.026;8.968;2022-08-21T09:03:51;9.30;;;4.85;;
12577;SDS011;6354;51.026;8.968;2022-08-21T09:06:28;9.45;;;4.97;;
12577;SDS011;6354;51.026;8.968;2022-08-21T09:09:08;11.57;;;5.75;;
12577;SDS011;6354;51.026;8.968;2022-08-21T09:11:47;17.40;;;6.00;;
12577;SDS011;6354;51.026;8.968;2022-08-21T09:14:24;8.77;;;4.82;;
12577;SDS011;6354;51.026;8.968;2022-08-21T09:17:02;12.75;;;5.28;;
12577;SDS011;6354;51.026;8.968;2022-08-21T09:19:55;8.63;;;4.78;;
12577;SDS011;6354;51.026;8.968;2022-08-21T09:22:31;9.30;;;5.20;;
12577;SDS011;6354;51.026;8.968;2022-08-21T09:25:08;14.32;;;4.97;;
12577;SDS011;6354;51.026;8.968;2022-08-21T09:27:43;11.43;;;5.25;;
12577;SDS011;6354;51.026;8.968;2022-08-21T09:30:12;10.05;;;5.25;;
12577;SDS011;6354;51.026;8.968;2022-08-21T09:32:41;10.45;;;4.60;;
12577;SDS011;6354;51.026;8.968;2022-08-21T09:35:10;11.93;;;4.55;;
12577;SDS011;6354;51.026;8.968;2022-08-21T09:37:48;8.73;;;4.43;;
12577;SDS011;6354;51.026;8.968;2022-08-21T09:40:29;8.60;;;4.10;;
12577;SDS011;6354;51.026;8.968;2022-08-21T09:43:00;9.73;;;4.78;;
12577;SDS011;6354;51.026;8.968;2022-08-21T09:45:32;8.70;;;4.43;;
12577;SDS011;6354;51.026;8.968;2022-08-21T09:48:11;8.32;;;4.28;;
12577;SDS011;6354;51.026;8.968;2022-08-21T09:50:42;8.60;;;4.03;;
12577;SDS011;6354;51.026;8.968;2022-08-21T09:53:17;10.32;;;4.68;;
12577;SDS011;6354;51.026;8.968;2022-08-21T09:55:48;11.00;;;4.35;;
12577;SDS011;6354;51.026;8.968;2022-08-21T09:58:38;10.32;;;4.10;;
12577;SDS011;6354;51.026;8.968;2022-08-21T10:01:14;8.40;;;4.43;;
12577;SDS011;6354;51.026;8.968;2022-08-21T10:03:48;8.70;;;4.15;;
12577;SDS011;6354;51.026;8.968;2022-08-21T10:06:21;8.07;;;4.43;;
12577;SDS011;6354;51.026;8.968;2022-08-21T10:09:02;7.63;;;4.13;;
12577;SDS011;6354;51.026;8.968;2022-08-21T10:11:33;7.65;;;3.92;;
12577;SDS011;6354;51.026;8.968;2022-08-21T10:14:03;8.98;;;4.20;;
12577;SDS011;6354;51.026;8.968;2022-08-21T10:16:44;7.82;;;4.00;;
12577;SDS011;6354;51.026;8.968;2022-08-21T10:19:20;7.35;;;3.95;;
12577;SDS011;6354;51.026;8.968;2022-08-21T10:21:57;5.80;;;3.45;;
12577;SDS011;6354;51.026;8.968;2022-08-21T10:24:31;6.20;;;4.00;;
12577;SDS011;6354;51.026;8.968;2022-08-21T10:27:14;6.60;;;3.83;;
12577;SDS011;6354;51.026;8.968;2022-08-21T10:29:51;6.45;;;3.53;;
12577;SDS011;6354;51.026;8.968;2022-08-21T10:32:27;6.47;;;3.28;;
12577;SDS011;6354;51.026;8.968;2022-08-21T10:35:19;6.68;;;3.58;;
12577;SDS011;6354;51.026;8.968;2022-08-21T10:37:57;7.28;;;3.00;;
12577;SDS011;6354;51.026;8.968;2022-08-21T10:41:05;4.90;;;3.00;;
12577;SDS011;6354;51.026;8.968;2022-08-21T10:43:43;7.63;;;3.58;;
12577;SDS011;6354;51.026;8.968;2022-08-21T10:46:32;7.70;;;3.55;;
12577;SDS011;6354;51.026;8.968;2022-08-21T10:49:13;5.82;;;3.83;;
12577;SDS011;6354;51.026;8.968;2022-08-21T10:51:50;6.30;;;3.50;;
12577;SDS011;6354;51.026;8.968;2022-08-21T10:54:29;7.95;;;3.70;;
12577;SDS011;6354;51.026;8.968;2022-08-21T10:57:04;5.38;;;3.17;;
12577;SDS011;6354;51.026;8.968;2022-08-21T10:59:38;6.57;;;3.63;;
12577;SDS011;6354;51.026;8.968;2022-08-21T11:02:13;8.90;;;3.83;;
12577;SDS011;6354;51.026;8.968;2022-08-21T11:04:50;7.95;;;3.83;;
12577;SDS011;6354;51.026;8.968;2022-08-21T11:07:25;7.55;;;3.58;;
12577;SDS011;6354;51.026;8.968;2022-08-21T11:10:00;7.40;;;3.25;;
12577;SDS011;6354;51.026;8.968;2022-08-21T11:12:35;7.30;;;4.05;;
12577;SDS011;6354;51.026;8.968;2022-08-21T11:15:15;6.22;;;3.35;;
12577;SDS011;6354;51.026;8.968;2022-08-21T11:17:57;5.80;;;3.42;;
12577;SDS011;6354;51.026;8.968;2022-08-21T11:20:33;7.20;;;3.20;;
12577;SDS011;6354;51.026;8.968;2022-08-21T11:23:09;8.95;;;3.50;;
12577;SDS011;6354;51.026;8.968;2022-08-21T11:25:44;10.30;;;3.55;;
12577;SDS011;6354;51.026;8.968;2022-08-21T11:28:20;6.05;;;3.17;;
12577;SDS011;6354;51.026;8.968;2022-08-21T11:30:52;4.25;;;2.90;;
12577;SDS011;6354;51.026;8.968;2022-08-21T11:33:34;5.28;;;3.28;;
12577;SDS011;6354;51.026;8.968;2022-08-21T11:36:15;7.55;;;3.22;;
12577;SDS011;6354;51.026;8.968;2022-08-21T11:38:53;6.28;;;3.38;;
12577;SDS011;6354;51.026;8.968;2022-08-21T11:41:31;7.70;;;3.40;;
12577;SDS011;6354;51.026;8.968;2022-08-21T11:44:08;6.72;;;3.70;;
12577;SDS011;6354;51.026;8.968;2022-08-21T11:46:44;4.25;;;3.13;;
12577;SDS011;6354;51.026;8.968;2022-08-21T11:49:26;5.82;;;3.28;;
12577;SDS011;6354;51.026;8.968;2022-08-21T11:52:07;5.15;;;2.92;;
12577;SDS011;6354;51.026;8.968;2022-08-21T11:54:41;4.90;;;3.28;;
12577;SDS011;6354;51.026;8.968;2022-08-21T11:57:14;5.40;;;3.05;;
12577;SDS011;6354;51.026;8.968;2022-08-21T11:59:49;8.15;;;3.20;;
12577;SDS011;6354;51.026;8.968;2022-08-21T12:02:23;5.53;;;3.15;;
12577;SDS011;6354;51.026;8.968;2022-08-21T12:04:57;7.32;;;3.30;;
12577;SDS011;6354;51.026;8.968;2022-08-21T12:07:36;4.70;;;3.10;;
12577;SDS011;6354;51.026;8.968;2022-08-21T12:10:07;5.20;;;3.35;;
12577;SDS011;6354;51.026;8.968;2022-08-21T12:12:38;4.40;;;3.08;;
12577;SDS011;6354;51.026;8.968;2022-08-21T12:15:13;4.32;;;3.00;;
12577;SDS011;6354;51.026;8.968;2022-08-21T12:17:54;5.68;;;3.38;;
12577;SDS011;6354;51.026;8.968;2022-08-21T12:20:38;6.10;;;3.10;;
12577;SDS011;6354;51.026;8.968;2022-08-21T12:23:26;5.45;;;3.03;;
12577;SDS011;6354;51.026;8.968;2022-08-21T12:29:14;6.53;;;3.10;;
12577;SDS011;6354;51.026;8.968;2022-08-21T12:31:49;6.60;;;3.42;;
12577;SDS011;6354;51.026;8.968;2022-08-21T12:34:21;5.82;;;2.88;;
12577;SDS011;6354;51.026;8.968;2022-08-21T12:36:54;6.93;;;2.85;;
12577;SDS011;6354;51.026;8.968;2022-08-21T12:39:28;6.75;;;3.05;;
12577;SDS011;6354;51.026;8.968;2022-08-21T12:42:00;5.63;;;2.95;;
12577;SDS011;6354;51.026;8.968;2022-08-21T12:44:35;6.30;;;2.92;;
12577;SDS011;6354;51.026;8.968;2022-08-21T12:47:14;5.97;;;2.97;;
12577;SDS011;6354;51.026;8.968;2022-08-21T12:49:51;7.85;;;3.15;;
12577;SDS011;6354;51.026;8.968;2022-08-21T12:52:24;6.35;;;3.40;;
12577;SDS011;6354;51.026;8.968;2022-08-21T12:55:06;4.78;;;3.10;;
12577;SDS011;6354;51.026;8.968;2022-08-21T12:57:36;5.70;;;3.55;;
12577;SDS011;6354;51.026;8.968;2022-08-21T13:00:06;4.00;;;2.90;;
12577;SDS011;6354;51.026;8.968;2022-08-21T13:02:38;5.50;;;2.60;;
12577;SDS011;6354;51.026;8.968;2022-08-21T13:05:12;4.82;;;2.90;;
12577;SDS011;6354;51.026;8.968;2022-08-21T13:07:44;5.25;;;3.00;;
12577;SDS011;6354;51.026;8.968;2022-08-21T13:10:16;4.95;;;2.92;;
12577;SDS011;6354;51.026;8.968;2022-08-21T13:12:47;6.30;;;3.08;;
12577;SDS011;6354;51.026;8.968;2022-08-21T13:15:21;6.47;;;3.05;;
12577;SDS011;6354;51.026;8.968;2022-08-21T13:17:59;5.07;;;2.70;;
12577;SDS011;6354;51.026;8.968;2022-08-21T13:20:30;4.53;;;2.70;;
12577;SDS011;6354;51.026;8.968;2022-08-21T13:23:00;6.22;;;2.88;;
12577;SDS011;6354;51.026;8.968;2022-08-21T13:25:34;3.20;;;2.78;;
12577;SDS011;6354;51.026;8.968;2022-08-21T13:28:05;4.72;;;2.97;;
12577;SDS011;6354;51.026;8.968;2022-08-21T13:30:38;4.10;;;2.67;;
12577;SDS011;6354;51.026;8.968;2022-08-21T13:33:09;4.50;;;2.50;;
12577;SDS011;6354;51.026;8.968;2022-08-21T13:35:46;6.53;;;2.88;;
12577;SDS011;6354;51.026;8.968;2022-08-21T13:38:15;5.07;;;2.83;;
12577;SDS011;6354;51.026;8.968;2022-08-21T13:40:46;4.70;;;2.55;;
12577;SDS011;6354;51.026;8.968;2022-08-21T13:43:17;4.72;;;3.00;;
12577;SDS011;6354;51.026;8.968;2022-08-21T13:45:51;6.18;;;2.83;;
12577;SDS011;6354;51.026;8.968;2022-08-21T13:48:20;5.53;;;3.00;;
12577;SDS011;6354;51.026;8.968;2022-08-21T13:50:50;6.20;;;2.55;;
12577;SDS011;6354;51.026;8.968;2022-08-21T13:53:21;6.20;;;2.72;;
12577;SDS011;6354;51.026;8.968;2022-08-21T13:55:52;4.10;;;2.50;;
12577;SDS011;6354;51.026;8.968;2022-08-21T13:58:26;3.88;;;2.60;;
12577;SDS011;6354;51.026;8.968;2022-08-21T14:00:56;5.05;;;2.70;;
12577;SDS011;6354;51.026;8.968;2022-08-21T14:03:33;3.67;;;2.38;;
12577;SDS011;6354;51.026;8.968;2022-08-21T14:06:10;3.60;;;2.40;;
12577;SDS011;6354;51.026;8.968;2022-08-21T14:08:40;3.67;;;2.70;;
12577;SDS011;6354;51.026;8.968;2022-08-21T14:11:16;4.35;;;2.78;;
12577;SDS011;6354;51.026;8.968;2022-08-21T14:13:45;5.00;;;2.33;;
12577;SDS011;6354;51.026;8.968;2022-08-21T14:16:18;4.57;;;2.65;;
12577;SDS011;6354;51.026;8.968;2022-08-21T14:18:50;3.65;;;2.40;;
12577;SDS011;6354;51.026;8.968;2022-08-21T14:21:25;3.15;;;2.20;;
12577;SDS011;6354;51.026;8.968;2022-08-21T14:24:02;4.70;;;2.60;;
12577;SDS011;6354;51.026;8.968;2022-08-21T14:26:34;4.43;;;2.30;;
12577;SDS011;6354;51.026;8.968;2022-08-21T14:29:04;4.20;;;2.60;;
12577;SDS011;6354;51.026;8.968;2022-08-21T14:31:36;3.92;;;2.65;;
12577;SDS011;6354;51.026;8.968;2022-08-21T14:34:09;4.35;;;2.40;;
12577;SDS011;6354;51.026;8.968;2022-08-21T14:36:45;3.28;;;2.38;;
12577;SDS011;6354;51.026;8.968;2022-08-21T14:39:14;4.60;;;2.40;;
12577;SDS011;6354;51.026;8.968;2022-08-21T14:41:43;2.95;;;2.20;;
12577;SDS011;6354;51.026;8.968;2022-08-21T14:44:14;2.53;;;2.15;;
12577;SDS011;6354;51.026;8.968;2022-08-21T14:46:44;3.35;;;2.03;;
12577;SDS011;6354;51.026;8.968;2022-08-21T14:49:23;5.50;;;2.60;;
12577;SDS011;6354;51.026;8.968;2022-08-21T14:51:53;2.78;;;2.10;;
12577;SDS011;6354;51.026;8.968;2022-08-21T14:54:24;4.05;;;2.17;;
12577;SDS011;6354;51.026;8.968;2022-08-21T14:56:59;2.85;;;2.17;;
12577;SDS011;6354;51.026;8.968;2022-08-21T14:59:29;3.70;;;2.28;;
12577;SDS011;6354;51.026;8.968;2022-08-21T15:01:59;3.30;;;1.98;;
12577;SDS011;6354;51.026;8.968;2022-08-21T15:04:27;4.63;;;2.30;;
12577;SDS011;6354;51.026;8.968;2022-08-21T15:06:55;4.10;;;2.22;;
12577;SDS011;6354;51.026;8.968;2022-08-21T15:09:23;4.40;;;2.22;;
12577;SDS011;6354;51.026;8.968;2022-08-21T15:11:52;5.28;;;4.10;;
12577;SDS011;6354;51.026;8.968;2022-08-21T15:14:24;5.90;;;2.95;;
12577;SDS011;6354;51.026;8.968;2022-08-21T15:16:54;3.50;;;2.22;;
12577;SDS011;6354;51.026;8.968;2022-08-21T15:19:22;5.10;;;2.80;;
12577;SDS011;6354;51.026;8.968;2022-08-21T15:21:51;3.33;;;2.05;;
12577;SDS011;6354;51.026;8.968;2022-08-21T15:24:20;4.30;;;2.38;;